Pagina principale
METAR-TAF:

METAR-TAF

Aeroporti :

Grazzanise, Italia

latitudine: 41-03N, longitudine: 014-04E, altezza: 9 m

Osservazione

Il bollettino è stato emesso 1 ora e 11 minuti fa, alle 01:55 UTC
Vento 4 kt da nord/nord-ovest
Temperature 20°C
Umidità 94%
Pressione 1017 hPa
Visibilità 10 km o più
Nubi sparse ad un'altezza di 2000 ft

METAR: LIRM 160155Z 33004KT 9999 SCT020 20/19 Q1017 RETS RMK SCT VIS MIN 9999 WIND THR06 32006KT BLU

Ora: 05:06 (03:06 UTC)

Previsione

Il bollettino è stato emesso 1 ora e 6 minuti fa, alle 02:00 UTC
Previsione valida dal 16 alle 03 UTC al 16 alle 12 UTC
Vento 6 kt da nord/nord-ovest
Visibilità 10 km o più
Nubi sparse ad un'altezza di 2000 ft

TAF: LIRM 160200Z 1603/1612 34006KT 9999 SCT020

Osservazioni e previsioni meteorologiche di più di 4000 aeroporti (messaggi METAR e TAF).

Le stazioni disponibili sono rappresentate dai dischi gialli e rossi sulla carta.

Puntare il mouse per vedere il nome della stazione.

Clicca sopra per visualizzare le osservazioni e previsioni meteorologiche.

Per cambiare la mappa : fare clic sui pulsanti verdi con una croce nera per ingrandire, il pulsante verde con un trattino per diminuire, o sulla freccia verde per le mappe adiacenti.


METAR-TAF: